Time;durP1;ratioP1;P1;durP2;ratioP2;P2;SDS_P1;SDS_P2;PMS_P1;PMS_P2;Temp;Humidity;BMP_temperature;BMP_pressure;BME280_temperature;BME280_humidity;BME280_pressure;Samples;Min_cycle;Max_cycle;Signal;HPM_P1;HPM_P2
2021/04/09 00:06:00;;;;;;;13.5;8.7;;;;;;;-0.27;100;99426.61;;;;
2021/04/09 00:15:58;;;;;;;16.3;11.7;;;;;;;-0.42;100;99441.22;;;;
2021/04/09 00:25:56;;;;;;;14.4;10.2;;;;;;;-0.74;100;99446.53;;;;
2021/04/09 00:35:53;;;;;;;12.3;8.1;;;;;;;-0.85;100;99441.09;;;;
2021/04/09 00:45:50;;;;;;;14.9;10.6;;;;;;;-0.79;100;99433.11;;;;
2021/04/09 00:55:48;;;;;;;14.8;8.7;;;;;;;-0.88;100;99431.76;;;;
2021/04/09 01:05:45;;;;;;;15.2;7.3;;;;;;;-0.94;100;99426.51;;;;
2021/04/09 01:15:43;;;;;;;11.3;7.8;;;;;;;-0.9;100;99423.2;;;;
2021/04/09 01:26:03;;;;;;;11.1;7.1;;;;;;;-0.8;100;99420.12;;;;
2021/04/09 01:35:38;;;;;;;9.4;6.3;;;;;;;-0.71;100;99413.53;;;;
2021/04/09 01:45:35;;;;;;;13.2;8;;;;;;;-0.94;100;99410.64;;;;
2021/04/09 01:55:33;;;;;;;10.2;5.8;;;;;;;-0.94;100;99413.28;;;;
2021/04/09 02:05:30;;;;;;;11.7;7.1;;;;;;;-0.92;100;99405.93;;;;
2021/04/09 02:15:31;;;;;;;9.3;6.6;;;;;;;-0.88;100;99407.13;;;;
2021/04/09 02:25:25;;;;;;;14;7.3;;;;;;;-0.9;100;99412.63;;;;
2021/04/09 02:35:23;;;;;;;13.5;6.6;;;;;;;-0.96;100;99415.31;;;;
2021/04/09 02:45:20;;;;;;;8.3;5.2;;;;;;;-0.89;100;99405.5;;;;
2021/04/09 02:55:18;;;;;;;8.2;5.2;;;;;;;-0.91;100;99396.98;;;;
2021/04/09 03:05:15;;;;;;;7.8;5.4;;;;;;;-0.97;100;99393.33;;;;
2021/04/09 03:15:13;;;;;;;11.7;5.4;;;;;;;-0.92;100;99388.23;;;;
2021/04/09 03:25:10;;;;;;;7.5;5.2;;;;;;;-0.92;100;99382.94;;;;
2021/04/09 03:35:07;;;;;;;12.7;7.9;;;;;;;-0.91;100;99383.75;;;;
2021/04/09 03:45:05;;;;;;;10.1;6.3;;;;;;;-0.87;100;99382.3;;;;
2021/04/09 03:55:02;;;;;;;9.2;5.8;;;;;;;-0.87;100;99382.3;;;;
2021/04/09 04:05:00;;;;;;;7.3;4.7;;;;;;;-1.05;100;99394.42;;;;
2021/04/09 04:14:57;;;;;;;16.4;10;;;;;;;-1.3;100;99388.25;;;;
2021/04/09 04:24:54;;;;;;;13;10.2;;;;;;;-1.57;100;99389.39;;;;
2021/04/09 04:34:52;;;;;;;12.4;7.6;;;;;;;-1.56;100;99394.45;;;;
2021/04/09 04:44:49;;;;;;;7.9;5;;;;;;;-1.41;100;99390.73;;;;
2021/04/09 04:54:46;;;;;;;8.9;5;;;;;;;-1.03;100;99397.66;;;;
2021/04/09 05:04:44;;;;;;;8.6;3.9;;;;;;;-0.6;100;99391.66;;;;
2021/04/09 05:14:41;;;;;;;8.5;3.8;;;;;;;-0.15;100;99389.64;;;;
2021/04/09 05:24:39;;;;;;;7.7;4.2;;;;;;;0.22;100;99398.42;;;;
2021/04/09 05:34:37;;;;;;;7.1;4.4;;;;;;;0.59;97.03711;99385.98;;;;
2021/04/09 05:44:36;;;;;;;9.6;5;;;;;;;0.95;94.80664;99383.23;;;;
2021/04/09 05:54:32;;;;;;;8.3;4.3;;;;;;;1.3;93.51074;99375.36;;;;
2021/04/09 06:04:29;;;;;;;7;3.9;;;;;;;1.49;91.58496;99380.34;;;;
2021/04/09 06:14:27;;;;;;;11.4;5.8;;;;;;;1.87;92.74414;99365.83;;;;
2021/04/09 06:24:25;;;;;;;11;4.3;;;;;;;2.36;87.46973;99362.62;;;;
2021/04/09 06:34:22;;;;;;;9.4;4.6;;;;;;;2.72;85.45508;99358;;;;
2021/04/09 06:44:20;;;;;;;18.4;5.8;;;;;;;2.94;85.12402;99364.28;;;;
2021/04/09 06:54:18;;;;;;;7.2;3.9;;;;;;;3.19;83.58887;99363.92;;;;
2021/04/09 07:04:16;;;;;;;7.1;4.6;;;;;;;3.46;81.84961;99357.73;;;;
2021/04/09 07:14:14;;;;;;;7.8;4.3;;;;;;;3.85;81.98926;99355.11;;;;
2021/04/09 07:24:12;;;;;;;7.7;5.4;;;;;;;4.18;81.01855;99338.21;;;;
2021/04/09 07:34:10;;;;;;;5.6;3.4;;;;;;;4.29;77.47363;99332.77;;;;
2021/04/09 07:44:08;;;;;;;8.3;4.8;;;;;;;4.73;75.04785;99328.19;;;;
2021/04/09 07:54:06;;;;;;;5.4;3.8;;;;;;;5.05;74.63672;99321.04;;;;
2021/04/09 08:04:04;;;;;;;8;4.2;;;;;;;5.27;72.10742;99323.64;;;;
2021/04/09 08:14:02;;;;;;;8.6;4.1;;;;;;;5.58;73.29883;99296.08;;;;
2021/04/09 08:24:00;;;;;;;9.3;4.3;;;;;;;5.99;68.13477;99297.14;;;;
2021/04/09 08:33:58;;;;;;;5.4;3.1;;;;;;;6.12;68.25391;99292.38;;;;
2021/04/09 08:43:56;;;;;;;6.9;4.3;;;;;;;6.59;68.78809;99285.06;;;;
2021/04/09 08:53:54;;;;;;;5.9;4.2;;;;;;;6.76;64.37402;99277.59;;;;
2021/04/09 09:03:53;;;;;;;4.6;2.4;;;;;;;6.97;66.4707;99267.7;;;;
2021/04/09 09:13:51;;;;;;;6.3;3.4;;;;;;;7.08;62.81543;99251.34;;;;
2021/04/09 09:23:49;;;;;;;7.3;2.8;;;;;;;7.43;66.96777;99242.47;;;;
2021/04/09 09:33:48;;;;;;;9.7;3.6;;;;;;;7.86;62.13867;99226.81;;;;
2021/04/09 09:43:46;;;;;;;7.9;3.3;;;;;;;7.75;62.96777;99196.52;;;;
2021/04/09 09:53:57;;;;;;;7.3;4.5;;;;;;;8;62.26074;99192.94;;;;
2021/04/09 10:03:43;;;;;;;6;2.5;;;;;;;8.31;61.76465;99180.18;;;;
2021/04/09 10:13:41;;;;;;;3.6;2.2;;;;;;;8.65;60.1748;99164.09;;;;
2021/04/09 10:23:40;;;;;;;5.2;2.9;;;;;;;8.65;60.06348;99140.72;;;;
2021/04/09 10:33:45;;;;;;;8.2;2.6;;;;;;;8.97;59.65723;99140.98;;;;
2021/04/09 10:43:38;;;;;;;7.7;2.6;;;;;;;9.12;58.97559;99121.22;;;;
2021/04/09 10:53:39;;;;;;;4.4;2.2;;;;;;;9.28;61.62012;99095.75;;;;
2021/04/09 11:03:34;;;;;;;6.8;2.7;;;;;;;9.46;57.7998;99105.77;;;;
2021/04/09 11:13:33;;;;;;;4.2;2.5;;;;;;;9.57;56.73828;99087.62;;;;
2021/04/09 11:23:31;;;;;;;5.6;3.1;;;;;;;10.01;54.5166;99079.2;;;;
2021/04/09 11:33:30;;;;;;;6.5;3.1;;;;;;;10.34;54.35352;99080.91;;;;
2021/04/09 11:43:29;;;;;;;5.2;2.2;;;;;;;10.34;53.27441;99074.71;;;;
2021/04/09 11:53:27;;;;;;;3.6;1.5;;;;;;;10.7;46.69727;99064.13;;;;
2021/04/09 12:03:26;;;;;;;5.5;2.6;;;;;;;10.93;47.81543;99063.95;;;;
2021/04/09 12:13:25;;;;;;;6.6;2.7;;;;;;;11.02;44.53223;99037.91;;;;
2021/04/09 12:23:25;;;;;;;7.7;2.8;;;;;;;11.32;44.79004;99019.51;;;;
2021/04/09 12:33:23;;;;;;;6.9;1.9;;;;;;;11.91;40.43848;99016.61;;;;
2021/04/09 12:43:22;;;;;;;3.3;1.7;;;;;;;11.69;40.1084;99003.07;;;;
2021/04/09 12:53:21;;;;;;;3.8;2.4;;;;;;;11.34;40.31641;98993.04;;;;
2021/04/09 13:03:20;;;;;;;5.9;2.9;;;;;;;11.76;41.95605;98967.58;;;;
2021/04/09 13:13:19;;;;;;;5.7;2.6;;;;;;;11.9;41.39746;98973.72;;;;
2021/04/09 13:23:18;;;;;;;4.9;1.8;;;;;;;11.97;39.42578;98949.78;;;;
2021/04/09 13:33:17;;;;;;;4.3;1.7;;;;;;;11.86;40.76563;98938.42;;;;
2021/04/09 13:43:16;;;;;;;5.9;2.2;;;;;;;11.71;39.20703;98922.58;;;;
2021/04/09 13:53:15;;;;;;;3.4;2.1;;;;;;;11.74;39.25488;98913.06;;;;
2021/04/09 14:03:14;;;;;;;4.2;2;;;;;;;11.97;37.59375;98907.37;;;;
2021/04/09 14:13:13;;;;;;;5.6;2.4;;;;;;;12;36.39355;98895.14;;;;
2021/04/09 14:23:12;;;;;;;4.6;1.9;;;;;;;11.93;38.92969;98890.18;;;;
2021/04/09 14:33:11;;;;;;;5.7;2.1;;;;;;;11.58;36.77051;98891.81;;;;
2021/04/09 14:43:10;;;;;;;4.7;2.7;;;;;;;11.94;37.46582;98883.65;;;;
2021/04/09 14:53:09;;;;;;;4.7;1.9;;;;;;;11.74;37.04688;98870.66;;;;
2021/04/09 15:03:08;;;;;;;7.5;3.1;;;;;;;12.36;37.38574;98873.37;;;;
2021/04/09 15:13:07;;;;;;;3.9;2.4;;;;;;;14;36.3291;98848.05;;;;
2021/04/09 15:23:06;;;;;;;7;3.5;;;;;;;15.03;33.16016;98842.15;;;;
2021/04/09 15:33:06;;;;;;;4.7;2.7;;;;;;;15.3;31.33203;98838.93;;;;
2021/04/09 15:43:05;;;;;;;7.4;3.2;;;;;;;14.93;32.59863;98829.77;;;;
2021/04/09 15:53:05;;;;;;;8.5;3.4;;;;;;;14.27;34.16309;98825.16;;;;
2021/04/09 16:03:04;;;;;;;4.4;1.9;;;;;;;12.91;35.08008;98827.73;;;;
2021/04/09 16:13:03;;;;;;;5.9;3.1;;;;;;;12.29;36.1416;98811.66;;;;
2021/04/09 16:23:03;;;;;;;5.2;2.9;;;;;;;11.54;36.86914;98806.34;;;;
2021/04/09 16:33:02;;;;;;;7.3;4.2;;;;;;;10.46;39.11719;98792.11;;;;
2021/04/09 16:43:01;;;;;;;11.5;5.5;;;;;;;9.86;40.71582;98778.7;;;;
2021/04/09 16:52:59;;;;;;;11.5;4.5;;;;;;;9.32;42.26758;98786.67;;;;
2021/04/09 17:02:58;;;;;;;10.4;6.3;;;;;;;8.89;44.28027;98773.34;;;;
2021/04/09 17:12:57;;;;;;;14.4;11.3;;;;;;;8.57;45.03027;98771.38;;;;
2021/04/09 17:22:55;;;;;;;17.7;15.8;;;;;;;8.38;44.89648;98778.63;;;;
2021/04/09 17:32:54;;;;;;;26.4;17;;;;;;;8.36;44.96191;98780.02;;;;
2021/04/09 17:42:52;;;;;;;13.9;9.2;;;;;;;8.16;45.75684;98788.3;;;;
2021/04/09 17:52:51;;;;;;;13.2;8.1;;;;;;;7.9;46.82715;98782.4;;;;
2021/04/09 18:02:49;;;;;;;12.3;7.4;;;;;;;7.51;47.71289;98788.69;;;;
2021/04/09 18:12:48;;;;;;;14.8;9.3;;;;;;;7.02;48.14258;98785.33;;;;
2021/04/09 18:22:47;;;;;;;30.4;22;;;;;;;6.38;50.4375;98796.98;;;;
2021/04/09 18:32:45;;;;;;;29.7;23.5;;;;;;;5.96;52.53711;98785.89;;;;
2021/04/09 18:42:43;;;;;;;55.1;36.7;;;;;;;5.77;53.3457;98788.31;;;;
2021/04/09 18:52:41;;;;;;;42.5;23;;;;;;;5.58;55.10645;98795.31;;;;
2021/04/09 19:02:39;;;;;;;34.2;28.3;;;;;;;5.52;56.35547;98780.33;;;;
2021/04/09 19:12:39;;;;;;;39.9;28.8;;;;;;;5.39;54.76855;98775.54;;;;
2021/04/09 19:22:39;;;;;;;52.3;33.4;;;;;;;5.09;56.06445;98765.68;;;;
2021/04/09 19:32:34;;;;;;;28.2;19.4;;;;;;;4.79;56.1709;98757.66;;;;
2021/04/09 19:42:32;;;;;;;28.7;21.9;;;;;;;4.38;58.56738;98756.76;;;;
2021/04/09 19:52:30;;;;;;;31.5;18.2;;;;;;;4.09;57.98047;98745.75;;;;
2021/04/09 20:02:28;;;;;;;27.1;21.7;;;;;;;3.72;59.89551;98743.17;;;;
2021/04/09 20:12:26;;;;;;;27.1;17.4;;;;;;;3.46;60.33887;98744.91;;;;
2021/04/09 20:22:24;;;;;;;24.8;19.2;;;;;;;3.23;61.98828;98739.17;;;;
2021/04/09 20:32:22;;;;;;;27.9;22.7;;;;;;;3;62.3457;98738.46;;;;
2021/04/09 20:42:20;;;;;;;33.1;20.1;;;;;;;2.79;62.68164;98733.22;;;;
2021/04/09 20:52:18;;;;;;;24.2;17.4;;;;;;;2.79;63.67188;98725.23;;;;
2021/04/09 21:02:16;;;;;;;28.5;15.8;;;;;;;2.67;65.54297;98729.94;;;;
2021/04/09 21:12:14;;;;;;;31.7;23.5;;;;;;;2.69;65.59082;98720.63;;;;
2021/04/09 21:22:12;;;;;;;16.4;13.4;;;;;;;2.65;63.63867;98710.73;;;;
2021/04/09 21:32:10;;;;;;;15.3;10.7;;;;;;;2.81;63.15137;98710.61;;;;
2021/04/09 21:42:08;;;;;;;14.7;9.8;;;;;;;2.85;61.92285;98717.03;;;;
2021/04/09 21:52:06;;;;;;;13.3;10.3;;;;;;;2.9;61.72949;98709.1;;;;
2021/04/09 22:02:03;;;;;;;13.8;8.4;;;;;;;2.78;61.21094;98703.13;;;;
2021/04/09 22:12:01;;;;;;;12.6;8.4;;;;;;;2.77;61.83301;98698.08;;;;
2021/04/09 22:21:59;;;;;;;20.8;11.6;;;;;;;2.54;61.52148;98683.24;;;;
2021/04/09 22:31:57;;;;;;;12.6;7.9;;;;;;;2.59;60.79492;98675.31;;;;
2021/04/09 22:41:55;;;;;;;7.5;4.9;;;;;;;3.38;57.75;98675.31;;;;
2021/04/09 22:51:52;;;;;;;13.9;9.4;;;;;;;3.46;58.62109;98672.98;;;;
2021/04/09 23:01:50;;;;;;;14.4;11;;;;;;;3.3;61.75293;98670.47;;;;
2021/04/09 23:11:48;;;;;;;16;13.5;;;;;;;3.09;61.70117;98645.58;;;;
2021/04/09 23:21:46;;;;;;;22;14.3;;;;;;;3.27;61.29199;98658.48;;;;
2021/04/09 23:31:44;;;;;;;14.6;10.1;;;;;;;3.35;61.49316;98649.2;;;;
2021/04/09 23:41:42;;;;;;;13.5;9.9;;;;;;;3.2;61.38281;98646.45;;;;
2021/04/09 23:51:40;;;;;;;20;7.9;;;;;;;3.18;61.17969;98638.73;;;;
